createdAt,value
2018-05-26T00:00:57.633Z,57.91
2018-05-26T00:03:23.493Z,57.94
2018-05-26T00:05:49.353Z,57.78
2018-05-26T00:08:15.173Z,58.04
2018-05-26T00:10:40.989Z,57.93
2018-05-26T00:13:06.849Z,58.09
2018-05-26T00:15:32.677Z,58.04
2018-05-26T00:17:58.493Z,58.04
2018-05-26T00:20:24.317Z,58.22
2018-05-26T00:22:56.321Z,57.98
2018-05-26T00:25:22.150Z,58.22
2018-05-26T00:27:47.958Z,57.96
2018-05-26T00:30:13.781Z,58.05
2018-05-26T00:32:39.601Z,58.20
2018-05-26T00:35:05.461Z,58.01
2018-05-26T00:37:31.377Z,57.96
2018-05-26T00:39:57.270Z,58.27
2018-05-26T00:42:23.094Z,58.09
2018-05-26T00:44:48.913Z,58.36
2018-05-26T00:47:14.785Z,57.96
2018-05-26T00:49:40.604Z,57.94
2018-05-26T00:52:06.501Z,57.91
2018-05-26T00:54:32.366Z,58.32
2018-05-26T00:56:58.222Z,58.17
2018-05-26T00:59:24.081Z,57.95
2018-05-26T01:01:49.901Z,58.51
2018-05-26T01:04:15.722Z,58.51
2018-05-26T01:06:41.575Z,58.22
2018-05-26T01:09:07.386Z,58.40
2018-05-26T01:11:33.211Z,58.29
2018-05-26T01:13:59.371Z,57.82
2018-05-26T01:16:25.210Z,58.13
2018-05-26T01:18:51.065Z,57.98
2018-05-26T01:21:16.881Z,58.28
2018-05-26T01:23:42.767Z,57.80
2018-05-26T01:26:08.581Z,57.72
2018-05-26T01:28:34.413Z,58.23
2018-05-26T01:31:00.220Z,58.25
2018-05-26T01:33:26.034Z,58.27
2018-05-26T01:35:51.889Z,57.92
2018-05-26T01:38:17.704Z,58.24
2018-05-26T01:40:43.518Z,58.03
2018-05-26T01:43:09.331Z,58.20
2018-05-26T01:45:35.187Z,57.96
2018-05-26T01:48:01.001Z,58.11
2018-05-26T01:50:26.862Z,57.95
2018-05-26T01:52:52.686Z,58.49
2018-05-26T01:55:18.496Z,58.58
2018-05-26T01:57:44.344Z,58.16
2018-05-26T02:00:10.160Z,58.84
2018-05-26T02:02:36.009Z,58.57
2018-05-26T02:05:01.826Z,58.64
2018-05-26T02:07:27.641Z,58.53
2018-05-26T02:09:53.452Z,58.50
2018-05-26T02:12:19.345Z,58.61
2018-05-26T02:14:45.265Z,58.21
2018-05-26T02:17:11.072Z,58.72
2018-05-26T02:19:36.896Z,58.71
2018-05-26T02:22:02.709Z,58.82
2018-05-26T02:24:28.529Z,58.60
2018-05-26T02:26:54.362Z,58.45
2018-05-26T02:29:20.214Z,58.53
2018-05-26T02:31:46.022Z,58.52
2018-05-26T02:34:11.833Z,58.40
2018-05-26T02:36:37.644Z,58.59
2018-05-26T02:39:03.596Z,58.49
2018-05-26T02:41:29.454Z,58.06
2018-05-26T02:43:55.337Z,58.78
2018-05-26T02:46:22.150Z,58.75
2018-05-26T02:48:47.968Z,58.49
2018-05-26T02:51:13.845Z,58.46
2018-05-26T02:53:39.739Z,58.73
2018-05-26T02:56:05.587Z,58.35
2018-05-26T02:58:31.444Z,58.86
2018-05-26T03:00:57.302Z,58.52
2018-05-26T03:03:23.152Z,58.01
2018-05-26T03:05:56.110Z,58.20
2018-05-26T03:08:28.001Z,58.56
2018-05-26T03:11:00.073Z,58.45
2018-05-26T03:13:32.113Z,58.56
2018-05-26T03:19:00.234Z,59.29
2018-05-26T03:21:26.048Z,58.60
2018-05-26T03:23:51.853Z,58.61
2018-05-26T03:26:17.667Z,58.92
2018-05-26T03:28:43.523Z,58.58
2018-05-26T03:31:09.312Z,57.72
2018-05-26T03:33:35.124Z,58.54
2018-05-26T03:36:00.971Z,58.33
2018-05-26T03:38:26.780Z,58.74
2018-05-26T03:40:52.632Z,58.48
2018-05-26T03:43:18.444Z,58.26
2018-05-26T03:45:44.296Z,58.79
2018-05-26T03:48:10.106Z,58.74
2018-05-26T03:50:35.957Z,58.51
2018-05-26T03:53:01.812Z,58.07
2018-05-26T03:55:33.853Z,58.75
2018-05-26T03:58:05.984Z,58.47
2018-05-26T04:00:31.836Z,59.04
2018-05-26T04:02:57.681Z,58.65
2018-05-26T04:05:23.485Z,58.88
2018-05-26T04:07:49.297Z,58.98
2018-05-26T04:10:15.104Z,58.83
2018-05-26T04:12:40.914Z,58.89
2018-05-26T04:15:06.720Z,58.55
2018-05-26T04:17:33.416Z,58.55
2018-05-26T04:19:59.220Z,58.51
2018-05-26T04:22:25.033Z,58.73
2018-05-26T04:24:50.846Z,58.30
2018-05-26T04:27:16.656Z,58.63
2018-05-26T04:29:42.505Z,58.47
2018-05-26T04:32:08.315Z,58.73
2018-05-26T04:34:34.169Z,58.17
2018-05-26T04:36:59.980Z,58.24
2018-05-26T04:39:25.800Z,58.50
2018-05-26T04:41:52.572Z,58.21
2018-05-26T04:44:18.377Z,58.00
2018-05-26T04:46:44.191Z,58.13
2018-05-26T04:49:10.001Z,57.83
2018-05-26T04:51:35.818Z,58.22
2018-05-26T04:54:01.627Z,57.97
2018-05-26T04:56:27.544Z,58.09
2018-05-26T04:58:53.351Z,58.41
2018-05-26T05:01:19.167Z,58.25
2018-05-26T05:03:44.976Z,57.87
2018-05-26T05:06:10.833Z,58.33
2018-05-26T05:08:36.689Z,58.15
2018-05-26T05:11:02.505Z,58.36
2018-05-26T05:13:28.361Z,58.14
2018-05-26T05:15:54.169Z,58.15
2018-05-26T05:18:20.024Z,58.38
2018-05-26T05:20:45.837Z,58.22
2018-05-26T05:23:11.643Z,58.31
2018-05-26T05:25:37.457Z,58.17
2018-05-26T05:28:03.268Z,58.29
2018-05-26T05:30:29.081Z,58.43
2018-05-26T05:32:54.897Z,58.32
2018-05-26T05:35:20.710Z,58.28
2018-05-26T05:37:46.541Z,58.39
2018-05-26T05:40:12.354Z,58.41
2018-05-26T05:42:38.161Z,58.28
2018-05-26T05:45:03.977Z,58.54
2018-05-26T05:47:29.790Z,58.02
2018-05-26T05:49:55.600Z,58.45
2018-05-26T05:52:21.414Z,58.32
2018-05-26T05:54:47.226Z,58.26
2018-05-26T05:57:13.045Z,58.33
2018-05-26T05:59:38.952Z,58.35
2018-05-26T06:02:04.798Z,58.28
2018-05-26T06:04:30.604Z,58.39
2018-05-26T06:06:56.418Z,58.20
2018-05-26T06:09:22.232Z,58.30
2018-05-26T06:11:48.038Z,58.39
2018-05-26T06:14:13.906Z,58.34
2018-05-26T06:16:39.761Z,58.19
2018-05-26T06:19:05.565Z,58.32
2018-05-26T06:21:31.374Z,58.23
2018-05-26T06:23:58.068Z,58.11
2018-05-26T06:26:23.969Z,58.37
2018-05-26T06:28:49.765Z,58.26
2018-05-26T06:31:15.577Z,58.25
2018-05-26T06:33:41.405Z,58.26
2018-05-26T06:36:07.217Z,58.44
2018-05-26T06:38:33.070Z,58.44
2018-05-26T06:40:58.885Z,58.24
2018-05-26T06:43:24.733Z,58.14
2018-05-26T06:45:50.548Z,58.58
2018-05-26T06:48:16.371Z,57.92
2018-05-26T06:50:42.210Z,58.12
2018-05-26T06:53:08.016Z,58.14
2018-05-26T06:55:33.821Z,58.20
2018-05-26T06:57:59.633Z,58.13
2018-05-26T07:00:25.453Z,58.18
2018-05-26T07:02:51.293Z,58.17
2018-05-26T07:05:17.141Z,58.21
2018-05-26T07:07:43.048Z,58.26
2018-05-26T07:10:09.373Z,58.38
2018-05-26T07:12:35.184Z,58.41
2018-05-26T07:15:01.012Z,58.27
2018-05-26T07:17:26.824Z,58.32
2018-05-26T07:19:52.689Z,58.10
2018-05-26T07:22:18.500Z,58.52
2018-05-26T07:24:44.366Z,58.44
2018-05-26T07:27:10.200Z,58.56
2018-05-26T07:29:36.014Z,58.51
2018-05-26T07:32:01.875Z,58.46
2018-05-26T07:34:27.725Z,58.55
2018-05-26T07:36:53.537Z,58.66
2018-05-26T07:39:19.397Z,58.63
2018-05-26T07:41:45.208Z,58.62
2018-05-26T07:44:11.053Z,58.67
2018-05-26T07:46:36.862Z,58.71
2018-05-26T07:49:02.732Z,58.81
2018-05-26T07:51:28.568Z,58.75
2018-05-26T07:53:54.373Z,58.86
2018-05-26T07:56:20.221Z,58.81
2018-05-26T07:58:46.039Z,58.73
2018-05-26T08:01:11.962Z,58.79
2018-05-26T08:03:37.885Z,58.94
2018-05-26T08:06:03.738Z,58.93
2018-05-26T08:08:29.553Z,58.94
2018-05-26T08:10:55.415Z,58.97
2018-05-26T08:13:21.222Z,59.05
2018-05-26T08:15:47.069Z,58.63
2018-05-26T08:18:12.877Z,58.08
2018-05-26T08:20:38.728Z,57.64
2018-05-26T08:23:04.543Z,57.12
2018-05-26T08:25:30.353Z,55.71
2018-05-26T08:27:56.166Z,55.86
2018-05-26T08:30:22.000Z,55.65
2018-05-26T08:32:47.812Z,55.45
2018-05-26T08:35:13.613Z,55.38
2018-05-26T08:37:39.427Z,55.59
2018-05-26T08:40:05.233Z,55.45
2018-05-26T08:42:31.045Z,55.60
2018-05-26T08:44:56.855Z,55.40
2018-05-26T08:47:22.666Z,55.75
2018-05-26T08:49:48.473Z,55.87
2018-05-26T08:52:14.328Z,55.77
2018-05-26T08:54:40.137Z,55.82
2018-05-26T08:57:05.950Z,55.98
2018-05-26T08:59:31.758Z,56.03
2018-05-26T09:01:57.561Z,55.59
2018-05-26T09:04:23.364Z,56.00
2018-05-26T09:06:49.172Z,56.12
2018-05-26T09:09:14.981Z,56.00
2018-05-26T09:11:41.573Z,56.16
2018-05-26T09:14:07.385Z,55.89
2018-05-26T09:16:33.362Z,56.04
2018-05-26T09:18:59.177Z,56.18
2018-05-26T09:21:24.990Z,56.14
2018-05-26T09:23:50.832Z,56.31
2018-05-26T09:26:16.712Z,56.37
2018-05-26T09:28:42.567Z,56.45
2018-05-26T09:31:08.381Z,56.22
2018-05-26T09:33:34.191Z,56.25
2018-05-26T09:36:00.034Z,56.28
2018-05-26T09:38:25.888Z,56.31
2018-05-26T09:40:52.275Z,56.28
2018-05-26T09:43:18.093Z,56.49
2018-05-26T09:45:43.905Z,56.44
2018-05-26T09:48:09.747Z,56.48
2018-05-26T09:50:35.557Z,56.55
2018-05-26T09:53:01.365Z,56.56
2018-05-26T09:55:27.213Z,56.61
2018-05-26T09:57:53.016Z,56.55
2018-05-26T10:00:18.837Z,56.57
2018-05-26T10:02:44.688Z,56.72
2018-05-26T10:05:10.498Z,56.66
2018-05-26T10:07:36.305Z,56.72
2018-05-26T10:10:02.121Z,56.86
2018-05-26T10:12:27.970Z,56.77
2018-05-26T10:14:53.826Z,56.71
2018-05-26T10:17:19.635Z,56.92
2018-05-26T10:19:45.481Z,57.03
2018-05-26T10:22:11.289Z,56.91
2018-05-26T10:24:37.100Z,56.89
2018-05-26T10:27:02.906Z,56.96
2018-05-26T10:29:28.713Z,56.97
2018-05-26T10:31:54.521Z,56.93
2018-05-26T10:34:20.351Z,57.17
2018-05-26T10:36:46.169Z,57.13
2018-05-26T10:39:11.972Z,56.93
2018-05-26T10:41:37.786Z,56.97
2018-05-26T10:44:03.598Z,57.05
2018-05-26T10:46:29.413Z,56.88
2018-05-26T10:48:55.220Z,57.20
2018-05-26T10:51:21.025Z,57.13
2018-05-26T10:53:46.939Z,57.19
2018-05-26T10:56:12.742Z,57.29
2018-05-26T10:58:38.558Z,56.96
2018-05-26T11:01:04.411Z,57.22
2018-05-26T11:03:30.218Z,57.01
2018-05-26T11:05:56.143Z,57.08
2018-05-26T11:08:21.955Z,57.28
2018-05-26T11:10:47.813Z,56.86
2018-05-26T11:13:13.621Z,57.19
2018-05-26T11:15:39.441Z,57.15
2018-05-26T11:18:05.362Z,57.06
2018-05-26T11:20:31.107Z,57.22
2018-05-26T11:22:56.969Z,57.20
2018-05-26T11:25:23.522Z,57.13
2018-05-26T11:27:49.381Z,56.91
2018-05-26T11:30:15.185Z,57.16
2018-05-26T11:32:41.045Z,57.25
2018-05-26T11:35:06.854Z,57.13
2018-05-26T11:37:32.662Z,57.25
2018-05-26T11:39:58.504Z,57.08
2018-05-26T11:42:24.312Z,57.09
2018-05-26T11:44:50.161Z,57.30
2018-05-26T11:47:15.967Z,57.36
2018-05-26T11:49:41.813Z,57.38
2018-05-26T11:52:08.458Z,57.32
2018-05-26T11:54:34.318Z,57.32
2018-05-26T11:57:00.136Z,57.42
2018-05-26T11:59:26.914Z,57.42
2018-05-26T12:01:52.810Z,57.46
2018-05-26T12:04:18.802Z,57.47
2018-05-26T12:06:44.605Z,57.46
2018-05-26T12:09:10.440Z,57.51
2018-05-26T12:11:36.288Z,57.52
2018-05-26T12:14:02.645Z,57.50
2018-05-26T12:16:28.452Z,57.52
2018-05-26T12:18:54.265Z,57.74
2018-05-26T12:21:20.896Z,57.54
2018-05-26T12:23:46.704Z,57.57
2018-05-26T12:26:12.609Z,57.68
2018-05-26T12:28:38.417Z,57.69
2018-05-26T12:31:04.220Z,57.77
2018-05-26T12:33:30.035Z,57.62
2018-05-26T12:35:55.943Z,57.70
2018-05-26T12:38:21.761Z,57.65
2018-05-26T12:40:47.573Z,57.88
2018-05-26T12:43:13.380Z,57.71
2018-05-26T12:45:39.933Z,57.69
2018-05-26T12:48:05.740Z,57.71
2018-05-26T12:50:31.548Z,58.03
2018-05-26T12:52:57.485Z,57.88
2018-05-26T12:55:23.337Z,57.92
2018-05-26T12:57:49.145Z,57.79
2018-05-26T13:00:14.983Z,57.98
2018-05-26T13:02:40.800Z,57.86
2018-05-26T13:05:06.657Z,58.10
2018-05-26T13:07:32.465Z,57.96
2018-05-26T13:09:58.314Z,57.96
2018-05-26T13:12:24.127Z,57.89
2018-05-26T13:14:49.972Z,57.98
2018-05-26T13:17:15.776Z,57.95
2018-05-26T13:19:41.635Z,58.01
2018-05-26T13:22:07.451Z,57.91
2018-05-26T13:24:33.291Z,57.83
2018-05-26T13:26:59.144Z,57.87
2018-05-26T13:29:24.976Z,57.96
2018-05-26T13:31:50.882Z,57.89
2018-05-26T13:34:19.349Z,58.09
2018-05-26T13:36:45.276Z,58.09
2018-05-26T13:39:11.085Z,57.95
2018-05-26T13:41:36.923Z,58.06
2018-05-26T13:44:02.780Z,58.07
2018-05-26T13:46:28.584Z,57.91
2018-05-26T13:48:54.400Z,58.22
2018-05-26T13:51:20.240Z,58.33
2018-05-26T13:53:46.185Z,58.15
2018-05-26T13:56:12.145Z,58.25
2018-05-26T13:58:37.952Z,58.06
2018-05-26T14:01:03.757Z,58.15
2018-05-26T14:03:29.565Z,58.06
2018-05-26T14:05:55.495Z,58.21
2018-05-26T14:08:21.337Z,58.40
2018-05-26T14:10:47.157Z,58.23
2018-05-26T14:13:12.978Z,58.28
2018-05-26T14:15:38.833Z,57.92
2018-05-26T14:18:04.648Z,58.16
2018-05-26T14:20:30.456Z,58.08
2018-05-26T14:22:56.361Z,57.96
2018-05-26T14:25:22.273Z,58.20
2018-05-26T14:27:48.081Z,58.05
2018-05-26T14:30:13.985Z,57.89
2018-05-26T14:32:39.789Z,58.40
2018-05-26T14:35:05.590Z,58.19
2018-05-26T14:37:31.400Z,57.99
2018-05-26T14:39:57.295Z,58.02
2018-05-26T14:42:23.096Z,58.04
2018-05-26T14:44:48.941Z,58.40
2018-05-26T14:47:14.809Z,58.32
2018-05-26T14:49:40.616Z,58.47
2018-05-26T14:52:06.418Z,57.82
2018-05-26T14:54:32.394Z,57.98
2018-05-26T14:56:58.204Z,58.22
2018-05-26T14:59:24.009Z,57.94
2018-05-26T15:01:49.848Z,58.06
2018-05-26T15:04:15.661Z,58.12
2018-05-26T15:06:41.470Z,57.89
2018-05-26T15:09:07.979Z,58.13
2018-05-26T15:11:34.241Z,58.13
2018-05-26T15:14:00.053Z,57.69
2018-05-26T15:16:27.018Z,57.87
2018-05-26T15:18:52.924Z,58.00
2018-05-26T15:21:18.908Z,57.79
2018-05-26T15:23:44.708Z,57.94
2018-05-26T15:26:10.518Z,57.86
2018-05-26T15:28:36.477Z,57.20
2018-05-26T15:31:02.396Z,57.49
2018-05-26T15:33:28.200Z,57.75
2018-05-26T15:35:54.004Z,57.38
2018-05-26T15:38:19.841Z,57.66
2018-05-26T15:40:45.648Z,57.69
2018-05-26T15:43:11.485Z,57.54
2018-05-26T15:45:37.288Z,57.80
2018-05-26T15:48:03.120Z,57.70
2018-05-26T15:50:28.929Z,57.74
2018-05-26T15:52:54.738Z,57.83
2018-05-26T15:55:20.543Z,57.74
2018-05-26T15:57:46.387Z,57.83
2018-05-26T16:00:12.201Z,57.11
2018-05-26T16:02:38.005Z,57.74
2018-05-26T16:05:03.809Z,57.68
2018-05-26T16:07:29.624Z,57.82
2018-05-26T16:09:55.484Z,57.57
2018-05-26T16:12:21.293Z,57.79
2018-05-26T16:14:47.141Z,57.70
2018-05-26T16:17:13.882Z,57.97
2018-05-26T16:19:39.684Z,57.49
2018-05-26T16:22:05.490Z,57.85
2018-05-26T16:24:31.293Z,58.11
2018-05-26T16:26:57.145Z,57.63
2018-05-26T16:29:22.986Z,57.82
2018-05-26T16:31:48.836Z,58.13
2018-05-26T16:34:14.681Z,57.83
2018-05-26T16:36:40.558Z,58.18
2018-05-26T16:39:06.473Z,58.19
2018-05-26T16:41:32.281Z,58.05
2018-05-26T16:43:58.143Z,58.10
2018-05-26T16:46:23.956Z,58.04
2018-05-26T16:48:49.765Z,57.58
2018-05-26T16:51:15.576Z,57.94
2018-05-26T16:53:41.429Z,57.96
2018-05-26T16:56:07.274Z,58.06
2018-05-26T16:58:33.180Z,57.83
2018-05-26T17:01:00.414Z,57.99
2018-05-26T17:03:26.221Z,58.19
2018-05-26T17:05:52.025Z,58.41
2018-05-26T17:08:17.832Z,58.45
2018-05-26T17:10:43.644Z,57.66
2018-05-26T17:13:09.479Z,57.77
2018-05-26T17:15:35.369Z,57.97
2018-05-26T17:18:01.173Z,58.11
2018-05-26T17:20:27.024Z,57.79
2018-05-26T17:22:52.829Z,58.02
2018-05-26T17:25:18.686Z,57.86
2018-05-26T17:27:44.490Z,58.07
2018-05-26T17:30:10.293Z,58.05
2018-05-26T17:32:36.097Z,57.70
2018-05-26T17:35:01.902Z,58.04
2018-05-26T17:37:27.704Z,58.06
2018-05-26T17:39:53.509Z,58.00
2018-05-26T17:42:19.357Z,57.94
2018-05-26T17:44:45.205Z,58.10
2018-05-26T17:47:11.200Z,57.07
2018-05-26T17:49:37.090Z,56.75
2018-05-26T17:52:02.917Z,56.89
2018-05-26T17:54:28.862Z,57.58
2018-05-26T17:56:55.746Z,57.75
2018-05-26T17:59:22.028Z,57.91
2018-05-26T18:01:47.861Z,57.85
2018-05-26T18:04:17.985Z,57.96
2018-05-26T18:06:43.975Z,58.16
2018-05-26T18:09:13.104Z,58.21
2018-05-26T18:11:40.455Z,58.25
2018-05-26T18:14:06.301Z,58.28
2018-05-26T18:16:32.167Z,58.33
2018-05-26T18:18:57.977Z,58.44
2018-05-26T18:21:23.781Z,58.48
2018-05-26T18:23:50.039Z,58.47
2018-05-26T18:26:15.872Z,58.53
2018-05-26T18:28:42.584Z,58.58
2018-05-26T18:31:17.061Z,58.22
2018-05-26T18:33:43.543Z,58.62
2018-05-26T18:36:09.365Z,58.75
2018-05-26T18:38:35.168Z,58.67
2018-05-26T18:41:00.973Z,58.64
2018-05-26T18:43:26.780Z,58.37
2018-05-26T18:45:52.589Z,58.09
2018-05-26T18:48:18.437Z,57.40
2018-05-26T18:50:44.241Z,56.82
2018-05-26T18:53:10.045Z,56.55
2018-05-26T18:55:35.849Z,55.85
2018-05-26T18:58:01.657Z,55.76
2018-05-26T19:00:27.467Z,55.43
2018-05-26T19:02:53.292Z,55.41
2018-05-26T19:05:19.101Z,55.14
2018-05-26T19:07:45.009Z,55.33
2018-05-26T19:10:10.819Z,55.44
2018-05-26T19:12:36.617Z,55.18
2018-05-26T19:15:02.423Z,55.11
2018-05-26T19:17:28.318Z,55.09
2018-05-26T19:19:54.157Z,55.22
2018-05-26T19:22:19.965Z,55.41
2018-05-26T19:24:45.776Z,55.35
2018-05-26T19:27:11.621Z,55.40
2018-05-26T19:29:37.425Z,55.40
2018-05-26T19:32:03.262Z,55.57
2018-05-26T19:34:29.109Z,55.53
2018-05-26T19:36:54.920Z,55.64
2018-05-26T19:39:20.793Z,55.71
2018-05-26T19:41:46.600Z,55.85
2018-05-26T19:44:12.441Z,55.98
2018-05-26T19:46:38.301Z,56.01
2018-05-26T19:49:04.117Z,55.98
2018-05-26T19:51:30.054Z,56.06
2018-05-26T19:53:55.865Z,56.07
2018-05-26T19:56:21.753Z,56.11
2018-05-26T19:58:47.565Z,56.21
2018-05-26T20:01:13.414Z,56.21
2018-05-26T20:03:39.273Z,56.18
2018-05-26T20:06:05.147Z,55.73
2018-05-26T20:08:30.981Z,55.62
2018-05-26T20:10:56.784Z,55.50
2018-05-26T20:13:22.633Z,55.56
2018-05-26T20:15:48.633Z,55.55
2018-05-26T20:18:14.482Z,55.54
2018-05-26T20:20:40.292Z,55.39
2018-05-26T20:23:06.148Z,55.64
2018-05-26T20:25:31.951Z,55.53
2018-05-26T20:27:58.392Z,55.48
2018-05-26T20:30:24.203Z,55.64
2018-05-26T20:32:50.005Z,55.78
2018-05-26T20:35:15.813Z,55.67
2018-05-26T20:37:41.678Z,55.75
2018-05-26T20:40:07.497Z,55.80
2018-05-26T20:42:33.349Z,55.85
2018-05-26T20:44:59.159Z,55.61
2018-05-26T20:47:24.969Z,55.92
2018-05-26T20:49:50.792Z,55.85
2018-05-26T20:52:16.638Z,55.97
2018-05-26T20:54:42.443Z,56.01
2018-05-26T20:57:08.245Z,55.99
2018-05-26T20:59:34.048Z,55.87
2018-05-26T21:01:59.852Z,55.85
2018-05-26T21:04:25.689Z,55.89
2018-05-26T21:06:51.519Z,55.94
2018-05-26T21:09:17.396Z,55.97
2018-05-26T21:11:43.249Z,55.91
2018-05-26T21:14:09.061Z,56.04
2018-05-26T21:16:34.888Z,56.10
2018-05-26T21:19:00.737Z,56.16
2018-05-26T21:21:26.545Z,56.18
2018-05-26T21:23:52.348Z,56.26
2018-05-26T21:26:18.157Z,56.19
2018-05-26T21:28:43.961Z,56.19
2018-05-26T21:31:09.764Z,56.26
2018-05-26T21:33:35.610Z,56.30
2018-05-26T21:36:01.422Z,56.35
2018-05-26T21:38:27.229Z,56.33
2018-05-26T21:40:53.038Z,56.47
2018-05-26T21:43:18.966Z,56.48
2018-05-26T21:45:44.777Z,56.56
2018-05-26T21:48:10.580Z,56.43
2018-05-26T21:50:36.392Z,56.37
2018-05-26T21:53:02.210Z,56.40
2018-05-26T21:55:28.262Z,56.47
2018-05-26T21:57:54.078Z,56.50
2018-05-26T22:00:19.900Z,56.58
2018-05-26T22:02:45.744Z,56.56
2018-05-26T22:05:11.553Z,56.58
2018-05-26T22:07:37.517Z,56.61
2018-05-26T22:10:03.324Z,56.58
2018-05-26T22:12:29.173Z,56.64
2018-05-26T22:14:54.977Z,56.66
2018-05-26T22:17:20.785Z,56.73
2018-05-26T22:19:46.602Z,56.70
2018-05-26T22:22:12.414Z,56.68
2018-05-26T22:24:38.228Z,56.91
2018-05-26T22:27:04.124Z,56.89
2018-05-26T22:29:29.982Z,56.91
2018-05-26T22:31:55.790Z,56.96
2018-05-26T22:34:21.596Z,56.97
2018-05-26T22:36:47.572Z,56.97
2018-05-26T22:39:13.393Z,57.10
2018-05-26T22:41:39.201Z,57.12
2018-05-26T22:44:05.069Z,57.01
2018-05-26T22:46:30.889Z,57.21
2018-05-26T22:48:56.702Z,57.22
2018-05-26T22:51:22.589Z,57.15
2018-05-26T22:53:48.398Z,57.31
2018-05-26T22:56:14.245Z,57.39
2018-05-26T22:58:40.050Z,57.29
2018-05-26T23:01:05.912Z,57.31
2018-05-26T23:03:31.754Z,57.42
2018-05-26T23:05:57.606Z,57.47
2018-05-26T23:08:23.581Z,57.29
2018-05-26T23:10:49.421Z,57.44
2018-05-26T23:13:15.233Z,57.39
2018-05-26T23:15:41.045Z,57.30
2018-05-26T23:18:06.852Z,57.39
2018-05-26T23:20:32.657Z,57.40
2018-05-26T23:22:58.457Z,57.55
2018-05-26T23:25:24.266Z,57.54
2018-05-26T23:27:50.076Z,57.54
2018-05-26T23:30:15.884Z,57.59
2018-05-26T23:32:41.689Z,57.62
2018-05-26T23:35:07.501Z,57.64
2018-05-26T23:37:33.314Z,57.66
2018-05-26T23:39:59.130Z,57.71
2018-05-26T23:42:24.964Z,57.68
2018-05-26T23:44:50.776Z,57.73
2018-05-26T23:47:16.621Z,57.72
2018-05-26T23:49:42.424Z,57.71
2018-05-26T23:52:08.273Z,57.73
2018-05-26T23:54:34.089Z,57.77
2018-05-26T23:56:59.936Z,57.70
2018-05-26T23:59:25.776Z,57.69
